Terminal Aerodrome Forecast
Issued by NWS

Home | Current Version | Previous Version | Text Only | Print | Product List | Glossary Off
Versions: 1 2 3 4 5 6 7 8 9 10 11 12 13

000
FTUS41 KCLE 222300
TAFFDY
TAF
KFDY 222339Z 2300/2324 26010KT P6SM SCT040 BKN070
     FM231400 29015G22KT P6SM BKN035
     FM231700 29015G25KT P6SM BKN050=

USA.gov is the U.S. government's official web portal to all federal, state and local government web resources and services.